sensor_id;sensor_type;location;lat;lon;timestamp;temperature;humidity
64549;DHT22;49838;51.798;10.954;2023-08-08T05:34:45;20.70;41.70
64549;DHT22;49838;51.798;10.954;2023-08-08T05:37:15;20.70;41.90
64549;DHT22;49838;51.798;10.954;2023-08-08T05:39:42;20.70;42.00
64549;DHT22;49838;51.798;10.954;2023-08-08T05:42:10;20.70;42.10
64549;DHT22;49838;51.798;10.954;2023-08-08T05:44:37;20.80;42.00
64549;DHT22;49838;51.798;10.954;2023-08-08T05:47:05;21.00;41.80
64549;DHT22;49838;51.798;10.954;2023-08-08T05:49:33;21.30;41.80
64549;DHT22;49838;51.798;10.954;2023-08-08T05:52:02;21.40;41.60
64549;DHT22;49838;51.798;10.954;2023-08-08T05:54:30;21.40;41.70
64549;DHT22;49838;51.798;10.954;2023-08-08T05:56:57;21.50;41.60
64549;DHT22;49838;51.798;10.954;2023-08-08T05:59:24;21.50;41.60
64549;DHT22;49838;51.798;10.954;2023-08-08T06:01:51;21.60;41.70
64549;DHT22;49838;51.798;10.954;2023-08-08T06:04:19;21.60;41.60
64549;DHT22;49838;51.798;10.954;2023-08-08T06:06:46;21.60;41.70
64549;DHT22;49838;51.798;10.954;2023-08-08T06:09:16;21.60;41.70
64549;DHT22;49838;51.798;10.954;2023-08-08T06:11:43;21.60;42.00
64549;DHT22;49838;51.798;10.954;2023-08-08T06:14:11;21.60;41.80
64549;DHT22;49838;51.798;10.954;2023-08-08T06:16:39;21.60;41.90
64549;DHT22;49838;51.798;10.954;2023-08-08T06:19:07;21.60;41.80
64549;DHT22;49838;51.798;10.954;2023-08-08T06:21:35;21.70;41.90
64549;DHT22;49838;51.798;10.954;2023-08-08T06:24:03;21.80;42.10
64549;DHT22;49838;51.798;10.954;2023-08-08T06:26:32;21.80;42.00
64549;DHT22;49838;51.798;10.954;2023-08-08T06:28:59;21.90;42.00
64549;DHT22;49838;51.798;10.954;2023-08-08T06:31:27;21.90;42.00
64549;DHT22;49838;51.798;10.954;2023-08-08T06:33:54;22.00;42.00
64549;DHT22;49838;51.798;10.954;2023-08-08T06:36:22;22.10;42.10
64549;DHT22;49838;51.798;10.954;2023-08-08T06:38:49;22.10;42.00
64549;DHT22;49838;51.798;10.954;2023-08-08T06:41:16;22.20;42.00
64549;DHT22;49838;51.798;10.954;2023-08-08T06:43:45;22.30;41.90
64549;DHT22;49838;51.798;10.954;2023-08-08T06:46:27;22.30;42.00
64549;DHT22;49838;51.798;10.954;2023-08-08T06:52:11;22.50;42.00
64549;DHT22;49838;51.798;10.954;2023-08-08T06:54:39;22.60;41.90
64549;DHT22;49838;51.798;10.954;2023-08-08T06:57:06;22.70;41.90
64549;DHT22;49838;51.798;10.954;2023-08-08T06:59:35;22.70;41.90
64549;DHT22;49838;51.798;10.954;2023-08-08T07:02:02;22.70;41.90
64549;DHT22;49838;51.798;10.954;2023-08-08T07:04:30;22.70;41.90
64549;DHT22;49838;51.798;10.954;2023-08-08T07:06:58;22.80;42.00
64549;DHT22;49838;51.798;10.954;2023-08-08T07:09:25;22.80;42.10
64549;DHT22;49838;51.798;10.954;2023-08-08T07:11:53;22.90;42.20
64549;DHT22;49838;51.798;10.954;2023-08-08T07:14:20;22.90;42.10
64549;DHT22;49838;51.798;10.954;2023-08-08T07:19:25;23.00;42.20
64549;DHT22;49838;51.798;10.954;2023-08-08T07:21:52;23.00;42.10
64549;DHT22;49838;51.798;10.954;2023-08-08T07:24:20;23.10;42.10
64549;DHT22;49838;51.798;10.954;2023-08-08T07:27:19;23.10;42.00
64549;DHT22;49838;51.798;10.954;2023-08-08T07:30:17;23.20;42.10
64549;DHT22;49838;51.798;10.954;2023-08-08T07:33:18;23.20;42.00
64549;DHT22;49838;51.798;10.954;2023-08-08T07:36:21;23.40;41.90
64549;DHT22;49838;51.798;10.954;2023-08-08T07:38:49;23.40;41.90
64549;DHT22;49838;51.798;10.954;2023-08-08T07:41:16;23.60;42.00
64549;DHT22;49838;51.798;10.954;2023-08-08T07:43:44;23.60;42.00
64549;DHT22;49838;51.798;10.954;2023-08-08T07:46:11;23.80;42.00
64549;DHT22;49838;51.798;10.954;2023-08-08T07:48:39;23.70;41.90
64549;DHT22;49838;51.798;10.954;2023-08-08T07:51:07;23.70;41.70
64549;DHT22;49838;51.798;10.954;2023-08-08T07:53:35;23.70;41.70
64549;DHT22;49838;51.798;10.954;2023-08-08T07:56:03;23.80;41.90
64549;DHT22;49838;51.798;10.954;2023-08-08T07:58:31;23.90;41.90
64549;DHT22;49838;51.798;10.954;2023-08-08T08:00:59;24.10;42.00
64549;DHT22;49838;51.798;10.954;2023-08-08T08:03:26;24.50;42.10
64549;DHT22;49838;51.798;10.954;2023-08-08T08:05:54;25.10;42.60
64549;DHT22;49838;51.798;10.954;2023-08-08T08:08:21;25.70;42.80
64549;DHT22;49838;51.798;10.954;2023-08-08T08:10:51;26.00;42.80
64549;DHT22;49838;51.798;10.954;2023-08-08T08:13:18;26.10;42.10
64549;DHT22;49838;51.798;10.954;2023-08-08T08:15:46;26.30;41.90
64549;DHT22;49838;51.798;10.954;2023-08-08T08:18:13;26.40;41.50
64549;DHT22;49838;51.798;10.954;2023-08-08T08:20:42;26.50;41.70
64549;DHT22;49838;51.798;10.954;2023-08-08T08:23:10;26.90;41.50
64549;DHT22;49838;51.798;10.954;2023-08-08T08:25:37;27.30;41.70
64549;DHT22;49838;51.798;10.954;2023-08-08T08:28:06;27.50;41.90
64549;DHT22;49838;51.798;10.954;2023-08-08T08:30:34;28.10;42.00
64549;DHT22;49838;51.798;10.954;2023-08-08T08:33:02;28.50;41.00
64549;DHT22;49838;51.798;10.954;2023-08-08T08:35:33;29.10;41.00
64549;DHT22;49838;51.798;10.954;2023-08-08T08:38:01;29.50;40.80
64549;DHT22;49838;51.798;10.954;2023-08-08T08:40:28;29.90;39.00
64549;DHT22;49838;51.798;10.954;2023-08-08T08:42:56;30.10;39.60
64549;DHT22;49838;51.798;10.954;2023-08-08T08:45:25;30.10;39.50
64549;DHT22;49838;51.798;10.954;2023-08-08T08:47:55;30.40;38.80
64549;DHT22;49838;51.798;10.954;2023-08-08T08:50:24;30.50;38.30
64549;DHT22;49838;51.798;10.954;2023-08-08T08:52:54;30.30;37.70
64549;DHT22;49838;51.798;10.954;2023-08-08T08:55:23;30.10;37.80
64549;DHT22;49838;51.798;10.954;2023-08-08T08:57:50;30.10;37.70
64549;DHT22;49838;51.798;10.954;2023-08-08T09:00:18;30.20;37.30
64549;DHT22;49838;51.798;10.954;2023-08-08T09:02:47;30.50;37.30
64549;DHT22;49838;51.798;10.954;2023-08-08T09:05:15;30.70;37.10
64549;DHT22;49838;51.798;10.954;2023-08-08T09:07:47;31.10;37.30
64549;DHT22;49838;51.798;10.954;2023-08-08T09:10:15;31.50;37.40
64549;DHT22;49838;51.798;10.954;2023-08-08T09:12:42;32.00;37.20
64549;DHT22;49838;51.798;10.954;2023-08-08T09:15:11;32.50;36.90
64549;DHT22;49838;51.798;10.954;2023-08-08T09:17:40;32.80;36.10
64549;DHT22;49838;51.798;10.954;2023-08-08T09:20:09;33.10;36.00
64549;DHT22;49838;51.798;10.954;2023-08-08T09:22:38;33.40;35.60
64549;DHT22;49838;51.798;10.954;2023-08-08T09:25:05;33.50;34.00
64549;DHT22;49838;51.798;10.954;2023-08-08T09:27:34;33.50;34.50
64549;DHT22;49838;51.798;10.954;2023-08-08T09:30:02;33.40;34.40
64549;DHT22;49838;51.798;10.954;2023-08-08T09:32:30;33.20;34.00
64549;DHT22;49838;51.798;10.954;2023-08-08T09:34:58;33.30;34.10
64549;DHT22;49838;51.798;10.954;2023-08-08T09:37:27;33.20;33.50
64549;DHT22;49838;51.798;10.954;2023-08-08T09:39:55;32.90;32.80
64549;DHT22;49838;51.798;10.954;2023-08-08T09:42:23;32.50;32.40
64549;DHT22;49838;51.798;10.954;2023-08-08T09:44:52;32.10;32.00
64549;DHT22;49838;51.798;10.954;2023-08-08T09:47:20;31.50;32.70
64549;DHT22;49838;51.798;10.954;2023-08-08T09:49:48;31.10;33.20
64549;DHT22;49838;51.798;10.954;2023-08-08T09:52:15;30.60;33.20
64549;DHT22;49838;51.798;10.954;2023-08-08T09:54:44;30.30;32.90
64549;DHT22;49838;51.798;10.954;2023-08-08T09:57:13;30.30;33.50
64549;DHT22;49838;51.798;10.954;2023-08-08T09:59:40;30.10;33.30
64549;DHT22;49838;51.798;10.954;2023-08-08T10:02:08;29.90;33.60
64549;DHT22;49838;51.798;10.954;2023-08-08T10:04:40;29.70;33.60
64549;DHT22;49838;51.798;10.954;2023-08-08T10:07:08;29.50;34.60
64549;DHT22;49838;51.798;10.954;2023-08-08T10:09:36;29.30;34.30
64549;DHT22;49838;51.798;10.954;2023-08-08T10:12:06;29.10;34.30
64549;DHT22;49838;51.798;10.954;2023-08-08T10:14:36;28.90;33.80
64549;DHT22;49838;51.798;10.954;2023-08-08T10:17:04;28.80;34.00
64549;DHT22;49838;51.798;10.954;2023-08-08T10:19:32;28.70;34.40
64549;DHT22;49838;51.798;10.954;2023-08-08T10:22:03;28.80;34.60
64549;DHT22;49838;51.798;10.954;2023-08-08T10:24:34;28.60;34.40
64549;DHT22;49838;51.798;10.954;2023-08-08T10:27:03;28.40;34.70
64549;DHT22;49838;51.798;10.954;2023-08-08T10:29:33;28.30;34.80
64549;DHT22;49838;51.798;10.954;2023-08-08T10:32:02;28.20;35.00
64549;DHT22;49838;51.798;10.954;2023-08-08T10:34:37;28.30;35.10
64549;DHT22;49838;51.798;10.954;2023-08-08T10:37:16;28.90;35.80
64549;DHT22;49838;51.798;10.954;2023-08-08T10:39:51;29.60;36.20
64549;DHT22;49838;51.798;10.954;2023-08-08T10:42:19;30.00;36.20
64549;DHT22;49838;51.798;10.954;2023-08-08T10:44:52;30.50;36.00
64549;DHT22;49838;51.798;10.954;2023-08-08T10:47:21;30.80;35.60
64549;DHT22;49838;51.798;10.954;2023-08-08T10:49:56;31.00;35.90
64549;DHT22;49838;51.798;10.954;2023-08-08T10:52:25;31.20;36.00
64549;DHT22;49838;51.798;10.954;2023-08-08T10:54:53;31.60;35.10
64549;DHT22;49838;51.798;10.954;2023-08-08T10:57:25;32.00;34.80
64549;DHT22;49838;51.798;10.954;2023-08-08T10:59:55;32.40;35.20
64549;DHT22;49838;51.798;10.954;2023-08-08T11:02:45;32.60;34.40
64549;DHT22;49838;51.798;10.954;2023-08-08T11:05:13;32.80;33.60
64549;DHT22;49838;51.798;10.954;2023-08-08T11:07:45;32.90;32.60
64549;DHT22;49838;51.798;10.954;2023-08-08T11:10:12;32.90;33.30
64549;DHT22;49838;51.798;10.954;2023-08-08T11:12:40;33.00;33.30
64549;DHT22;49838;51.798;10.954;2023-08-08T11:15:09;32.80;33.40
64549;DHT22;49838;51.798;10.954;2023-08-08T11:17:37;32.50;33.20
64549;DHT22;49838;51.798;10.954;2023-08-08T11:20:06;32.30;32.80
64549;DHT22;49838;51.798;10.954;2023-08-08T11:22:34;32.30;32.90
64549;DHT22;49838;51.798;10.954;2023-08-08T11:25:01;32.10;32.50
64549;DHT22;49838;51.798;10.954;2023-08-08T11:27:32;31.90;32.30
64549;DHT22;49838;51.798;10.954;2023-08-08T11:29:59;31.70;31.70
64549;DHT22;49838;51.798;10.954;2023-08-08T11:33:01;31.60;31.80
64549;DHT22;49838;51.798;10.954;2023-08-08T11:35:29;31.50;31.90
64549;DHT22;49838;51.798;10.954;2023-08-08T11:37:57;31.30;31.90
64549;DHT22;49838;51.798;10.954;2023-08-08T11:40:30;31.10;32.20
64549;DHT22;49838;51.798;10.954;2023-08-08T11:42:58;30.90;32.30
64549;DHT22;49838;51.798;10.954;2023-08-08T11:45:26;30.50;31.90
64549;DHT22;49838;51.798;10.954;2023-08-08T11:47:54;29.90;32.50
64549;DHT22;49838;51.798;10.954;2023-08-08T11:50:24;29.10;33.10
64549;DHT22;49838;51.798;10.954;2023-08-08T11:52:56;28.50;33.80
64549;DHT22;49838;51.798;10.954;2023-08-08T11:55:27;28.10;34.40
64549;DHT22;49838;51.798;10.954;2023-08-08T11:57:57;27.80;35.10
64549;DHT22;49838;51.798;10.954;2023-08-08T12:00:26;27.70;35.20
64549;DHT22;49838;51.798;10.954;2023-08-08T12:02:55;27.60;35.40
64549;DHT22;49838;51.798;10.954;2023-08-08T12:05:24;27.50;35.60
64549;DHT22;49838;51.798;10.954;2023-08-08T12:07:52;27.20;35.60
64549;DHT22;49838;51.798;10.954;2023-08-08T12:10:20;27.00;35.70
64549;DHT22;49838;51.798;10.954;2023-08-08T12:12:52;26.90;35.90
64549;DHT22;49838;51.798;10.954;2023-08-08T12:15:20;26.80;36.10
64549;DHT22;49838;51.798;10.954;2023-08-08T12:17:47;26.80;36.00
64549;DHT22;49838;51.798;10.954;2023-08-08T12:20:15;26.80;35.90
64549;DHT22;49838;51.798;10.954;2023-08-08T12:22:43;26.80;35.80
64549;DHT22;49838;51.798;10.954;2023-08-08T12:25:14;26.90;35.80
64549;DHT22;49838;51.798;10.954;2023-08-08T12:27:42;26.90;35.60
64549;DHT22;49838;51.798;10.954;2023-08-08T12:30:12;27.00;35.70
64549;DHT22;49838;51.798;10.954;2023-08-08T12:32:39;27.10;35.80
64549;DHT22;49838;51.798;10.954;2023-08-08T12:35:07;27.10;35.90
64549;DHT22;49838;51.798;10.954;2023-08-08T12:37:37;27.10;35.70
64549;DHT22;49838;51.798;10.954;2023-08-08T12:40:06;27.10;35.60
64549;DHT22;49838;51.798;10.954;2023-08-08T12:42:35;27.10;35.70
64549;DHT22;49838;51.798;10.954;2023-08-08T12:45:02;27.10;35.50
64549;DHT22;49838;51.798;10.954;2023-08-08T12:47:30;27.00;35.50
64549;DHT22;49838;51.798;10.954;2023-08-08T12:49:58;27.00;35.30
64549;DHT22;49838;51.798;10.954;2023-08-08T12:52:28;26.90;35.20
64549;DHT22;49838;51.798;10.954;2023-08-08T12:54:57;26.90;35.40
64549;DHT22;49838;51.798;10.954;2023-08-08T12:57:26;27.00;35.50
64549;DHT22;49838;51.798;10.954;2023-08-08T12:59:54;27.10;35.40
64549;DHT22;49838;51.798;10.954;2023-08-08T13:02:21;27.20;35.20
64549;DHT22;49838;51.798;10.954;2023-08-08T13:04:48;27.20;34.80
64549;DHT22;49838;51.798;10.954;2023-08-08T13:07:18;27.30;34.90
64549;DHT22;49838;51.798;10.954;2023-08-08T13:09:46;27.30;34.80
64549;DHT22;49838;51.798;10.954;2023-08-08T13:12:13;27.30;34.90
64549;DHT22;49838;51.798;10.954;2023-08-08T13:14:42;27.40;35.10
64549;DHT22;49838;51.798;10.954;2023-08-08T13:17:09;27.40;35.10
64549;DHT22;49838;51.798;10.954;2023-08-08T13:19:36;27.40;35.30
64549;DHT22;49838;51.798;10.954;2023-08-08T13:22:04;27.40;35.40
64549;DHT22;49838;51.798;10.954;2023-08-08T13:24:31;27.50;35.60
64549;DHT22;49838;51.798;10.954;2023-08-08T13:27:00;27.50;35.70
64549;DHT22;49838;51.798;10.954;2023-08-08T13:29:28;27.50;35.80
64549;DHT22;49838;51.798;10.954;2023-08-08T13:31:59;27.40;35.70
64549;DHT22;49838;51.798;10.954;2023-08-08T13:34:27;27.40;35.60
64549;DHT22;49838;51.798;10.954;2023-08-08T13:36:54;27.50;35.70
64549;DHT22;49838;51.798;10.954;2023-08-08T13:39:21;27.50;35.70
64549;DHT22;49838;51.798;10.954;2023-08-08T13:41:49;27.50;35.60
64549;DHT22;49838;51.798;10.954;2023-08-08T13:44:16;27.50;35.60
64549;DHT22;49838;51.798;10.954;2023-08-08T13:46:44;27.60;35.40
64549;DHT22;49838;51.798;10.954;2023-08-08T13:49:15;27.60;35.30
64549;DHT22;49838;51.798;10.954;2023-08-08T13:51:42;27.60;35.10
64549;DHT22;49838;51.798;10.954;2023-08-08T13:54:10;27.60;34.70
64549;DHT22;49838;51.798;10.954;2023-08-08T13:56:37;27.60;35.00
64549;DHT22;49838;51.798;10.954;2023-08-08T13:59:04;27.60;34.80
64549;DHT22;49838;51.798;10.954;2023-08-08T14:01:32;27.70;34.80
64549;DHT22;49838;51.798;10.954;2023-08-08T14:03:59;27.70;34.90
64549;DHT22;49838;51.798;10.954;2023-08-08T14:06:28;27.80;35.20
64549;DHT22;49838;51.798;10.954;2023-08-08T14:08:58;27.90;34.70
64549;DHT22;49838;51.798;10.954;2023-08-08T14:11:26;27.90;34.30
64549;DHT22;49838;51.798;10.954;2023-08-08T14:13:53;28.00;34.10
64549;DHT22;49838;51.798;10.954;2023-08-08T14:16:20;28.00;34.10
64549;DHT22;49838;51.798;10.954;2023-08-08T14:18:48;28.10;33.80
64549;DHT22;49838;51.798;10.954;2023-08-08T14:21:15;28.30;33.80
64549;DHT22;49838;51.798;10.954;2023-08-08T14:23:44;28.40;33.60
64549;DHT22;49838;51.798;10.954;2023-08-08T14:26:14;28.70;33.80
64549;DHT22;49838;51.798;10.954;2023-08-08T14:28:41;28.80;33.60
64549;DHT22;49838;51.798;10.954;2023-08-08T14:31:09;28.80;33.10
64549;DHT22;49838;51.798;10.954;2023-08-08T14:33:36;28.70;33.10
64549;DHT22;49838;51.798;10.954;2023-08-08T14:36:03;28.70;33.20
64549;DHT22;49838;51.798;10.954;2023-08-08T14:38:34;28.60;32.90
64549;DHT22;49838;51.798;10.954;2023-08-08T14:41:03;28.40;33.00
64549;DHT22;49838;51.798;10.954;2023-08-08T14:43:33;28.30;33.10
64549;DHT22;49838;51.798;10.954;2023-08-08T14:46:01;28.20;32.80
64549;DHT22;49838;51.798;10.954;2023-08-08T14:48:28;28.10;33.00
64549;DHT22;49838;51.798;10.954;2023-08-08T14:50:55;28.10;32.50
64549;DHT22;49838;51.798;10.954;2023-08-08T14:53:23;28.10;32.80
64549;DHT22;49838;51.798;10.954;2023-08-08T14:55:50;28.10;33.00
64549;DHT22;49838;51.798;10.954;2023-08-08T14:58:23;28.20;33.60
64549;DHT22;49838;51.798;10.954;2023-08-08T15:01:14;28.20;33.00
64549;DHT22;49838;51.798;10.954;2023-08-08T15:04:06;28.30;32.70
64549;DHT22;49838;51.798;10.954;2023-08-08T15:06:56;28.20;32.70
64549;DHT22;49838;51.798;10.954;2023-08-08T15:09:27;28.10;32.90
64549;DHT22;49838;51.798;10.954;2023-08-08T15:11:57;28.00;33.10
64549;DHT22;49838;51.798;10.954;2023-08-08T15:14:25;28.00;33.20
64549;DHT22;49838;51.798;10.954;2023-08-08T15:16:53;27.90;33.10
64549;DHT22;49838;51.798;10.954;2023-08-08T15:19:20;28.00;33.40
64549;DHT22;49838;51.798;10.954;2023-08-08T15:21:49;28.10;33.30
64549;DHT22;49838;51.798;10.954;2023-08-08T15:24:16;28.10;33.30
64549;DHT22;49838;51.798;10.954;2023-08-08T15:26:45;28.20;33.40
64549;DHT22;49838;51.798;10.954;2023-08-08T15:29:13;28.10;33.20
64549;DHT22;49838;51.798;10.954;2023-08-08T15:31:41;28.00;33.10
64549;DHT22;49838;51.798;10.954;2023-08-08T15:34:09;27.90;33.00
64549;DHT22;49838;51.798;10.954;2023-08-08T15:36:36;27.70;32.90
64549;DHT22;49838;51.798;10.954;2023-08-08T15:39:03;27.60;33.40
64549;DHT22;49838;51.798;10.954;2023-08-08T15:41:31;27.60;33.30
64549;DHT22;49838;51.798;10.954;2023-08-08T15:43:58;27.60;33.30
64549;DHT22;49838;51.798;10.954;2023-08-08T15:46:26;27.70;34.10
64549;DHT22;49838;51.798;10.954;2023-08-08T15:48:54;27.80;33.60
64549;DHT22;49838;51.798;10.954;2023-08-08T15:51:22;27.90;33.50
64549;DHT22;49838;51.798;10.954;2023-08-08T15:53:52;27.90;33.50
64549;DHT22;49838;51.798;10.954;2023-08-08T15:56:19;27.80;33.50
64549;DHT22;49838;51.798;10.954;2023-08-08T15:58:46;27.90;33.70
64549;DHT22;49838;51.798;10.954;2023-08-08T16:01:14;27.70;33.70
64549;DHT22;49838;51.798;10.954;2023-08-08T16:03:42;27.70;33.90
64549;DHT22;49838;51.798;10.954;2023-08-08T16:06:16;27.70;34.00
64549;DHT22;49838;51.798;10.954;2023-08-08T16:08:43;27.60;33.90
64549;DHT22;49838;51.798;10.954;2023-08-08T16:11:11;27.50;34.00
64549;DHT22;49838;51.798;10.954;2023-08-08T16:13:38;27.40;34.10
64549;DHT22;49838;51.798;10.954;2023-08-08T16:16:05;27.10;34.10
64549;DHT22;49838;51.798;10.954;2023-08-08T16:18:33;27.00;34.30
64549;DHT22;49838;51.798;10.954;2023-08-08T16:21:00;26.90;34.30
64549;DHT22;49838;51.798;10.954;2023-08-08T16:23:29;26.90;34.30
64549;DHT22;49838;51.798;10.954;2023-08-08T16:25:56;26.90;34.30
64549;DHT22;49838;51.798;10.954;2023-08-08T16:28:23;26.90;34.30
64549;DHT22;49838;51.798;10.954;2023-08-08T16:30:52;26.90;34.30
64549;DHT22;49838;51.798;10.954;2023-08-08T16:33:19;26.80;34.30
64549;DHT22;49838;51.798;10.954;2023-08-08T16:35:46;26.70;34.30
64549;DHT22;49838;51.798;10.954;2023-08-08T16:38:14;26.60;34.30
64549;DHT22;49838;51.798;10.954;2023-08-08T16:40:43;26.60;34.50
64549;DHT22;49838;51.798;10.954;2023-08-08T16:43:10;26.60;34.50
64549;DHT22;49838;51.798;10.954;2023-08-08T16:45:38;26.60;34.50
64549;DHT22;49838;51.798;10.954;2023-08-08T16:48:05;26.70;34.50
64549;DHT22;49838;51.798;10.954;2023-08-08T16:50:33;26.60;34.40
64549;DHT22;49838;51.798;10.954;2023-08-08T16:53:03;26.70;34.50
64549;DHT22;49838;51.798;10.954;2023-08-08T16:55:31;26.80;34.40
64549;DHT22;49838;51.798;10.954;2023-08-08T16:57:59;26.80;34.50
64549;DHT22;49838;51.798;10.954;2023-08-08T17:00:32;26.80;34.50
64549;DHT22;49838;51.798;10.954;2023-08-08T17:02:59;26.80;34.40
64549;DHT22;49838;51.798;10.954;2023-08-08T17:05:29;26.90;34.50
64549;DHT22;49838;51.798;10.954;2023-08-08T17:07:56;26.90;34.50
64549;DHT22;49838;51.798;10.954;2023-08-08T17:10:24;26.80;34.50
64549;DHT22;49838;51.798;10.954;2023-08-08T17:12:51;26.70;35.30
64549;DHT22;49838;51.798;10.954;2023-08-08T17:15:20;26.60;34.80
64549;DHT22;49838;51.798;10.954;2023-08-08T17:17:47;26.40;34.90
64549;DHT22;49838;51.798;10.954;2023-08-08T17:20:15;26.30;35.00
64549;DHT22;49838;51.798;10.954;2023-08-08T17:22:44;26.20;35.00
64549;DHT22;49838;51.798;10.954;2023-08-08T17:25:11;26.10;35.10
64549;DHT22;49838;51.798;10.954;2023-08-08T17:27:39;26.10;35.20
64549;DHT22;49838;51.798;10.954;2023-08-08T17:30:07;26.00;35.20
64549;DHT22;49838;51.798;10.954;2023-08-08T17:32:37;25.90;35.30
64549;DHT22;49838;51.798;10.954;2023-08-08T17:35:05;25.90;35.30
64549;DHT22;49838;51.798;10.954;2023-08-08T17:37:38;25.80;35.30
64549;DHT22;49838;51.798;10.954;2023-08-08T17:40:06;25.70;35.30
64549;DHT22;49838;51.798;10.954;2023-08-08T17:42:35;25.60;35.30
64549;DHT22;49838;51.798;10.954;2023-08-08T17:45:02;25.40;35.40
64549;DHT22;49838;51.798;10.954;2023-08-08T17:47:30;25.20;35.40
64549;DHT22;49838;51.798;10.954;2023-08-08T17:50:00;25.10;35.60
64549;DHT22;49838;51.798;10.954;2023-08-08T17:52:28;25.00;35.50
64549;DHT22;49838;51.798;10.954;2023-08-08T17:54:55;24.90;35.60
64549;DHT22;49838;51.798;10.954;2023-08-08T17:57:22;24.70;35.50
64549;DHT22;49838;51.798;10.954;2023-08-08T17:59:50;24.60;35.50
64549;DHT22;49838;51.798;10.954;2023-08-08T18:02:17;24.50;35.60
64549;DHT22;49838;51.798;10.954;2023-08-08T18:04:44;24.40;35.50
64549;DHT22;49838;51.798;10.954;2023-08-08T18:07:13;24.30;35.60
64549;DHT22;49838;51.798;10.954;2023-08-08T18:09:41;24.20;35.60
64549;DHT22;49838;51.798;10.954;2023-08-08T18:12:11;24.20;35.60
64549;DHT22;49838;51.798;10.954;2023-08-08T18:14:39;24.20;35.60
64549;DHT22;49838;51.798;10.954;2023-08-08T18:17:07;24.10;35.50
64549;DHT22;49838;51.798;10.954;2023-08-08T18:19:34;24.20;35.60
64549;DHT22;49838;51.798;10.954;2023-08-08T18:22:01;24.10;35.50
64549;DHT22;49838;51.798;10.954;2023-08-08T18:24:33;24.10;35.50
64549;DHT22;49838;51.798;10.954;2023-08-08T18:27:00;24.00;36.00
64549;DHT22;49838;51.798;10.954;2023-08-08T18:29:30;23.90;36.60
64549;DHT22;49838;51.798;10.954;2023-08-08T18:31:57;23.70;36.70
64549;DHT22;49838;51.798;10.954;2023-08-08T18:34:24;23.60;36.50
64549;DHT22;49838;51.798;10.954;2023-08-08T18:36:52;23.40;36.50
64549;DHT22;49838;51.798;10.954;2023-08-08T18:39:19;23.40;36.60
64549;DHT22;49838;51.798;10.954;2023-08-08T18:41:49;23.40;36.60
64549;DHT22;49838;51.798;10.954;2023-08-08T18:44:16;23.30;36.60
64549;DHT22;49838;51.798;10.954;2023-08-08T18:46:43;23.20;36.60
64549;DHT22;49838;51.798;10.954;2023-08-08T18:49:11;23.20;36.50
64549;DHT22;49838;51.798;10.954;2023-08-08T18:51:38;23.20;36.50
64549;DHT22;49838;51.798;10.954;2023-08-08T18:54:06;23.20;36.40
64549;DHT22;49838;51.798;10.954;2023-08-08T18:56:34;23.10;36.40
64549;DHT22;49838;51.798;10.954;2023-08-08T18:59:03;23.10;36.40
64549;DHT22;49838;51.798;10.954;2023-08-08T19:01:30;23.10;36.60
64549;DHT22;49838;51.798;10.954;2023-08-08T19:04:00;23.00;36.50
64549;DHT22;49838;51.798;10.954;2023-08-08T19:06:28;22.90;36.50
64549;DHT22;49838;51.798;10.954;2023-08-08T19:08:56;22.90;36.60
64549;DHT22;49838;51.798;10.954;2023-08-08T19:11:23;22.90;36.50
64549;DHT22;49838;51.798;10.954;2023-08-08T19:13:53;22.90;36.60
64549;DHT22;49838;51.798;10.954;2023-08-08T19:16:22;22.80;36.60
64549;DHT22;49838;51.798;10.954;2023-08-08T19:18:49;22.80;36.80
64549;DHT22;49838;51.798;10.954;2023-08-08T19:21:17;22.80;36.90
64549;DHT22;49838;51.798;10.954;2023-08-08T19:23:45;22.80;36.90
64549;DHT22;49838;51.798;10.954;2023-08-08T19:26:12;22.70;36.90
64549;DHT22;49838;51.798;10.954;2023-08-08T19:28:41;22.80;37.00
64549;DHT22;49838;51.798;10.954;2023-08-08T19:31:09;22.70;37.10
64549;DHT22;49838;51.798;10.954;2023-08-08T19:33:37;22.70;37.20
64549;DHT22;49838;51.798;10.954;2023-08-08T19:36:05;22.70;37.30
64549;DHT22;49838;51.798;10.954;2023-08-08T19:38:34;22.70;37.50
64549;DHT22;49838;51.798;10.954;2023-08-08T19:41:02;22.60;37.60
64549;DHT22;49838;51.798;10.954;2023-08-08T19:43:29;22.50;37.60
64549;DHT22;49838;51.798;10.954;2023-08-08T19:45:57;22.40;37.70
64549;DHT22;49838;51.798;10.954;2023-08-08T19:48:25;22.40;37.70
64549;DHT22;49838;51.798;10.954;2023-08-08T19:50:53;22.30;37.80
64549;DHT22;49838;51.798;10.954;2023-08-08T19:53:21;22.30;38.00
64549;DHT22;49838;51.798;10.954;2023-08-08T19:55:48;22.30;38.00
64549;DHT22;49838;51.798;10.954;2023-08-08T19:58:16;22.30;38.80
64549;DHT22;49838;51.798;10.954;2023-08-08T20:00:43;22.20;38.00
64549;DHT22;49838;51.798;10.954;2023-08-08T20:03:11;22.20;38.60
64549;DHT22;49838;51.798;10.954;2023-08-08T20:05:38;22.20;37.90
64549;DHT22;49838;51.798;10.954;2023-08-08T20:08:07;22.20;37.90
64549;DHT22;49838;51.798;10.954;2023-08-08T20:10:34;22.20;38.00
64549;DHT22;49838;51.798;10.954;2023-08-08T20:13:02;22.30;38.20
64549;DHT22;49838;51.798;10.954;2023-08-08T20:15:30;22.20;38.00
64549;DHT22;49838;51.798;10.954;2023-08-08T20:17:57;22.20;38.10
64549;DHT22;49838;51.798;10.954;2023-08-08T20:20:24;22.20;38.10
64549;DHT22;49838;51.798;10.954;2023-08-08T20:22:52;22.20;38.10
64549;DHT22;49838;51.798;10.954;2023-08-08T20:25:21;22.10;38.10
64549;DHT22;49838;51.798;10.954;2023-08-08T20:27:48;22.00;38.30
64549;DHT22;49838;51.798;10.954;2023-08-08T20:30:15;22.00;38.30
64549;DHT22;49838;51.798;10.954;2023-08-08T20:32:43;22.00;38.30
64549;DHT22;49838;51.798;10.954;2023-08-08T20:35:10;21.90;38.20
64549;DHT22;49838;51.798;10.954;2023-08-08T20:37:37;21.90;38.20
64549;DHT22;49838;51.798;10.954;2023-08-08T20:40:05;21.80;38.10
64549;DHT22;49838;51.798;10.954;2023-08-08T20:42:35;21.80;38.40
64549;DHT22;49838;51.798;10.954;2023-08-08T20:45:02;21.80;38.50
64549;DHT22;49838;51.798;10.954;2023-08-08T20:47:30;21.70;38.40
64549;DHT22;49838;51.798;10.954;2023-08-08T20:49:57;21.70;38.50
64549;DHT22;49838;51.798;10.954;2023-08-08T20:52:25;21.70;38.30
64549;DHT22;49838;51.798;10.954;2023-08-08T20:54:52;21.70;38.30
64549;DHT22;49838;51.798;10.954;2023-08-08T20:57:19;21.60;38.20
64549;DHT22;49838;51.798;10.954;2023-08-08T20:59:49;21.60;38.50
64549;DHT22;49838;51.798;10.954;2023-08-08T21:02:16;21.60;38.50
64549;DHT22;49838;51.798;10.954;2023-08-08T21:04:44;21.50;38.40